Time;durP1;ratioP1;P1;durP2;ratioP2;P2;SDS_P1;SDS_P2;PMS_P1;PMS_P2;Temp;Humidity;BMP_temperature;BMP_pressure;BME280_temperature;BME280_humidity;BME280_pressure;Samples;Min_cycle;Max_cycle;Signal;HPM_P1;HPM_P2
2022/05/17 00:02:09;;;;;;;21.60;7.55;;;538.20;2252.80;;;;;;5072449;28;20115;-81
2022/05/17 00:04:35;;;;;;;19.75;7.63;;;538.20;2227.20;;;;;;5072717;28;20468;-81
2022/05/17 00:07:04;;;;;;;15.68;7.85;;;538.10;2252.80;;;;;;5072848;28;20021;-81
2022/05/17 00:09:30;;;;;;;16.45;7.70;;;538.10;2252.80;;;;;;5072527;28;20028;-81
2022/05/17 00:11:57;;;;;;;16.02;7.32;;;538.20;2227.20;;;;;;5072750;28;20024;-81
2022/05/17 00:14:23;;;;;;;14.43;7.78;;;538.20;2227.20;;;;;;5072454;28;20032;-81
2022/05/17 00:16:49;;;;;;;14.10;6.63;;;538.20;2201.60;;;;;;5072373;28;20112;-82
2022/05/17 00:19:19;;;;;;;15.25;7.70;;;538.20;2201.60;;;;;;5072803;28;20037;-83
2022/05/17 00:21:45;;;;;;;13.70;8.07;;;538.30;2201.60;;;;;;5073035;28;20044;-82
2022/05/17 00:24:12;;;;;;;11.05;6.50;;;538.40;2176.00;;;;;;5073037;28;20098;-83
2022/05/17 00:26:38;;;;;;;12.55;7.47;;;538.40;2176.00;;;;;;5072702;28;20040;-82
2022/05/17 00:29:05;;;;;;;12.88;7.90;;;538.30;2227.20;;;;;;5072257;28;20028;-82
2022/05/17 00:31:31;;;;;;;13.45;7.28;;;538.20;2252.80;;;;;;5072603;28;20159;-83
2022/05/17 00:33:57;;;;;;;17.30;7.93;;;538.20;2252.80;;;;;;5072683;28;20033;-83
2022/05/17 00:36:24;;;;;;;22.98;8.43;;;538.20;2201.60;;;;;;5073804;28;20043;-82
2022/05/17 00:38:50;;;;;;;13.52;8.45;;;538.00;2278.40;;;;;;5073437;28;20116;-83
2022/05/17 00:41:15;;;;;;;14.38;8.15;;;537.90;2278.40;;;;;;5072434;28;20052;-83
2022/05/17 00:46:37;;;;;;;13.52;8.38;;;537.60;2304.00;;;;;;5074299;28;20074;-83
2022/05/17 00:49:06;;;;;;;18.27;7.90;;;537.60;2329.60;;;;;;5072046;28;20480;-83
2022/05/17 00:51:32;;;;;;;17.05;8.23;;;537.60;2329.60;;;;;;5072179;28;20506;-83
2022/05/17 00:54:05;;;;;;;15.13;8.85;;;537.60;2329.60;;;;;;5072388;28;20414;-83
2022/05/17 00:56:31;;;;;;;17.23;8.48;;;537.60;2304.00;;;;;;5071875;28;20044;-83
2022/05/17 00:59:00;;;;;;;17.40;8.25;;;537.60;2355.20;;;;;;5072535;28;20024;-83
2022/05/17 01:01:31;;;;;;;16.23;8.63;;;537.60;2406.40;;;;;;5072035;28;20021;-83
2022/05/17 01:04:05;;;;;;;17.80;8.57;;;512.90;2380.80;;;;;;5071409;28;20031;-83
2022/05/17 01:06:42;;;;;;;12.30;8.88;;;512.90;2380.80;;;;;;5070573;28;20036;-83
2022/05/17 01:09:09;;;;;;;12.75;8.95;;;512.80;2380.80;;;;;;5071957;28;20082;-83
2022/05/17 01:11:35;;;;;;;17.48;9.40;;;512.70;2380.80;;;;;;5073478;28;20024;-83
2022/05/17 01:16:45;;;;;;;19.50;9.40;;;512.40;2380.80;;;;;;5073614;28;20112;-82
2022/05/17 01:19:12;;;;;;;16.17;9.45;;;512.40;2380.80;;;;;;5071796;28;20040;-83
2022/05/17 01:21:38;;;;;;;16.52;9.30;;;512.30;2380.80;;;;;;5072045;28;20025;-83
2022/05/17 01:24:05;;;;;;;19.33;9.70;;;512.20;2380.80;;;;;;5071649;28;20480;-83
2022/05/17 01:26:35;;;;;;;18.33;9.43;;;512.10;2380.80;;;;;;5071836;28;20040;-83
2022/05/17 01:29:02;;;;;;;18.10;9.82;;;512.00;2380.80;;;;;;5072123;28;20097;-83
2022/05/17 01:31:28;;;;;;;20.27;9.75;;;512.00;2380.80;;;;;;5072004;28;20020;-83
2022/05/17 01:33:54;;;;;;;25.67;8.93;;;487.30;2380.80;;;;;;5071716;28;20068;-82
2022/05/17 01:36:22;;;;;;;17.63;8.98;;;487.30;2380.80;;;;;;5071899;28;20023;-83
2022/05/17 01:38:52;;;;;;;16.42;9.20;;;512.10;2380.80;;;;;;5071595;28;20139;-83
2022/05/17 01:41:19;;;;;;;15.73;9.63;;;512.20;2380.80;;;;;;5072222;28;20021;-83
2022/05/17 01:43:45;;;;;;;16.42;9.30;;;512.00;2380.80;;;;;;5071579;28;20033;-83
2022/05/17 01:46:11;;;;;;;15.43;9.15;;;487.30;2380.80;;;;;;5071918;28;20151;-83
2022/05/17 01:48:38;;;;;;;14.50;9.82;;;487.10;2380.80;;;;;;5071706;28;20448;-83
2022/05/17 01:51:05;;;;;;;15.07;10.15;;;487.10;2380.80;;;;;;5072228;28;20017;-83
2022/05/17 01:53:32;;;;;;;15.95;9.77;;;487.30;2380.80;;;;;;5071806;28;20040;-83
2022/05/17 01:56:00;;;;;;;21.75;9.38;;;512.00;2380.80;;;;;;5071528;28;20119;-83
2022/05/17 01:58:26;;;;;;;19.48;10.35;;;512.10;2380.80;;;;;;5071838;28;20036;-83
2022/05/17 02:00:52;;;;;;;22.77;10.23;;;512.00;2380.80;;;;;;5071760;28;20028;-83
2022/05/17 02:03:17;;;;;;;20.80;11.35;;;487.20;2380.80;;;;;;5071860;28;20025;-83
2022/05/17 02:05:43;;;;;;;14.77;10.68;;;487.30;2380.80;;;;;;5071539;28;20615;-82
2022/05/17 02:08:09;;;;;;;21.30;11.27;;;487.30;2380.80;;;;;;5071960;28;20029;-83
2022/05/17 02:10:35;;;;;;;21.13;10.82;;;487.30;2380.80;;;;;;5071606;28;20024;-83
2022/05/17 02:13:00;;;;;;;15.02;11.15;;;487.20;2380.80;;;;;;5071623;28;20040;-82
2022/05/17 02:15:27;;;;;;;22.30;11.43;;;487.20;2380.80;;;;;;5074243;28;20506;-82
2022/05/17 02:17:53;;;;;;;21.52;11.23;;;487.20;2380.80;;;;;;5075362;28;20472;-82
2022/05/17 02:20:20;;;;;;;18.98;11.40;;;487.20;2380.80;;;;;;5075373;28;20051;-83
2022/05/17 02:22:45;;;;;;;21.05;10.65;;;487.20;2380.80;;;;;;5074868;28;20476;-83
2022/05/17 02:25:12;;;;;;;23.00;10.07;;;487.20;2380.80;;;;;;5074883;28;20135;-83
2022/05/17 02:27:38;;;;;;;19.38;11.02;;;487.20;2380.80;;;;;;5075157;28;20029;-82
2022/05/17 02:30:09;;;;;;;23.00;12.55;;;487.20;2380.80;;;;;;5074418;28;20139;-83
2022/05/17 02:32:35;;;;;;;15.82;10.88;;;487.30;2380.80;;;;;;5074659;28;20032;-82
2022/05/17 02:35:01;;;;;;;20.38;11.35;;;487.30;2380.80;;;;;;5075116;28;20032;-82
2022/05/17 02:37:27;;;;;;;20.50;11.57;;;487.10;2380.80;;;;;;5075001;28;20032;-82
2022/05/17 02:39:53;;;;;;;19.95;11.43;;;486.90;2380.80;;;;;;5074994;28;20062;-83
2022/05/17 02:42:19;;;;;;;19.23;11.05;;;486.70;2380.80;;;;;;5074774;28;20472;-83
2022/05/17 02:44:45;;;;;;;22.25;11.05;;;486.80;2380.80;;;;;;5074868;28;20138;-83
2022/05/17 02:47:11;;;;;;;17.08;12.00;;;486.80;2380.80;;;;;;5074676;28;20035;-83
2022/05/17 02:49:40;;;;;;;18.80;10.93;;;486.80;2380.80;;;;;;5074975;28;20021;-83
2022/05/17 02:52:06;;;;;;;34.58;11.73;;;486.70;2380.80;;;;;;5074822;28;20020;-83
2022/05/17 02:54:33;;;;;;;21.83;10.70;;;486.70;2380.80;;;;;;5074429;28;20519;-83
2022/05/17 02:56:59;;;;;;;15.15;10.05;;;486.80;2380.80;;;;;;5074702;28;20025;-82
2022/05/17 02:59:25;;;;;;;21.25;10.32;;;487.00;2380.80;;;;;;5074496;28;20029;-83
2022/05/17 03:01:51;;;;;;;20.52;10.95;;;487.00;2380.80;;;;;;5074852;28;20029;-84
2022/05/17 03:04:17;;;;;;;18.35;11.02;;;487.20;2380.80;;;;;;5074666;28;20016;-84
2022/05/17 03:06:44;;;;;;;15.80;10.05;;;487.30;2380.80;;;;;;5075893;28;20017;-83
2022/05/17 03:09:11;;;;;;;26.33;11.27;;;512.00;2380.80;;;;;;5074298;28;20030;-83
2022/05/17 03:11:41;;;;;;;108.10;20.25;;;512.00;2380.80;;;;;;5074543;28;20060;-83
2022/05/17 03:14:08;;;;;;;26.75;10.30;;;487.30;2380.80;;;;;;5074008;28;20074;-82
2022/05/17 03:16:34;;;;;;;18.40;10.57;;;487.30;2380.80;;;;;;5075054;28;20020;-82
2022/05/17 03:19:00;;;;;;;19.05;10.82;;;512.00;2380.80;;;;;;5074335;28;20024;-83
2022/05/17 03:21:26;;;;;;;16.60;10.88;;;512.20;2380.80;;;;;;5074404;28;20480;-82
2022/05/17 03:23:52;;;;;;;16.58;11.07;;;512.30;2380.80;;;;;;5074111;28;20025;-83
2022/05/17 03:26:19;;;;;;;16.27;9.95;;;512.40;2380.80;;;;;;5073072;28;20495;-82
2022/05/17 03:28:44;;;;;;;18.95;10.95;;;512.50;2380.80;;;;;;5074131;28;20479;-84
2022/05/17 03:31:10;;;;;;;20.45;10.38;;;512.50;2380.80;;;;;;5073468;28;20024;-82
2022/05/17 03:33:37;;;;;;;22.75;11.55;;;512.60;2380.80;;;;;;5073774;28;20101;-82
2022/05/17 03:36:04;;;;;;;15.52;10.10;;;512.40;2380.80;;;;;;5073478;28;20033;-82
2022/05/17 03:38:29;;;;;;;17.85;9.75;;;512.50;2355.20;;;;;;5090334;28;20494;-82
2022/05/17 03:40:58;;;;;;;15.73;9.77;;;512.30;2380.80;;;;;;5094105;28;20032;-83
2022/05/17 03:43:24;;;;;;;24.60;10.73;;;512.50;2380.80;;;;;;5093705;28;20024;-81
2022/05/17 03:45:50;;;;;;;15.43;10.07;;;512.70;2355.20;;;;;;5093507;28;20027;-80
2022/05/17 03:48:16;;;;;;;22.80;11.00;;;512.60;2355.20;;;;;;5092855;28;20024;-81
2022/05/17 03:50:42;;;;;;;21.05;10.95;;;512.50;2380.80;;;;;;5074432;28;20029;-80
2022/05/17 03:53:08;;;;;;;24.55;11.07;;;512.20;2380.80;;;;;;5072731;28;20487;-81
2022/05/17 03:55:35;;;;;;;18.35;10.38;;;512.40;2380.80;;;;;;5074069;28;20044;-82
2022/05/17 03:58:01;;;;;;;20.75;10.77;;;512.30;2380.80;;;;;;5074328;28;20050;-77
2022/05/17 04:00:26;;;;;;;15.10;10.95;;;512.20;2380.80;;;;;;5073246;28;20103;-82
2022/05/17 04:02:53;;;;;;;21.65;11.35;;;512.10;2380.80;;;;;;5074292;28;20021;-82
2022/05/17 04:05:18;;;;;;;18.80;10.73;;;487.30;2380.80;;;;;;5072434;28;20039;-79
2022/05/17 04:07:44;;;;;;;20.05;11.70;;;512.00;2380.80;;;;;;5073076;28;20028;-81
2022/05/17 04:10:13;;;;;;;16.02;10.50;;;512.00;2380.80;;;;;;5073037;28;20384;-83
2022/05/17 04:12:39;;;;;;;16.95;11.55;;;487.30;2380.80;;;;;;5073201;28;20040;-82
2022/05/17 04:15:07;;;;;;;17.42;10.50;;;487.30;2380.80;;;;;;5072608;28;20027;-81
2022/05/17 04:17:33;;;;;;;16.75;10.35;;;512.00;2380.80;;;;;;5073779;28;20025;-83
2022/05/17 04:19:59;;;;;;;15.27;11.20;;;487.30;2380.80;;;;;;5072507;28;20557;-83
2022/05/17 04:22:26;;;;;;;26.83;11.40;;;487.30;2380.80;;;;;;5073897;28;20020;-81
2022/05/17 04:24:56;;;;;;;20.80;11.43;;;487.30;2380.80;;;;;;5072252;28;20113;-81
2022/05/17 04:27:22;;;;;;;21.50;10.77;;;487.30;2380.80;;;;;;5072536;28;20036;-82
2022/05/17 04:29:48;;;;;;;21.05;10.75;;;487.30;2380.80;;;;;;5072710;28;20025;-81
2022/05/17 04:32:13;;;;;;;22.15;11.15;;;487.30;2380.80;;;;;;5072171;28;20074;-80
2022/05/17 04:34:39;;;;;;;18.77;10.68;;;512.00;2380.80;;;;;;5072717;28;20036;-84
2022/05/17 04:37:05;;;;;;;20.85;11.18;;;512.00;2380.80;;;;;;5073609;28;20384;-82
2022/05/17 04:39:32;;;;;;;18.25;11.23;;;512.00;2380.80;;;;;;5072692;28;20088;-82
2022/05/17 04:41:58;;;;;;;18.90;11.35;;;512.20;2380.80;;;;;;5071734;28;20033;-80
2022/05/17 04:44:25;;;;;;;34.25;12.05;;;512.20;2380.80;;;;;;5072197;28;20027;-81
2022/05/17 04:46:51;;;;;;;23.50;12.02;;;512.50;2380.80;;;;;;5071593;28;20024;-82
2022/05/17 04:49:17;;;;;;;22.00;10.38;;;512.60;2380.80;;;;;;5071961;28;20040;-81
2022/05/17 04:51:43;;;;;;;19.33;9.85;;;512.80;2380.80;;;;;;5071846;28;20024;-81
2022/05/17 04:54:09;;;;;;;28.15;11.38;;;512.90;2380.80;;;;;;5071442;28;20043;-82
2022/05/17 04:56:35;;;;;;;17.17;10.32;;;537.70;2406.40;;;;;;5071858;28;20052;-80
2022/05/17 04:59:01;;;;;;;14.27;8.90;;;537.80;2406.40;;;;;;5070913;28;20484;-81
2022/05/17 05:01:27;;;;;;;17.58;9.80;;;538.00;2406.40;;;;;;5073183;28;20111;-80
2022/05/17 05:03:53;;;;;;;17.20;9.35;;;538.00;2406.40;;;;;;5071344;28;20460;-80
2022/05/17 05:06:19;;;;;;;18.90;9.90;;;538.10;2406.40;;;;;;5072820;28;20021;-77
2022/05/17 05:08:45;;;;;;;24.98;10.18;;;538.30;2406.40;;;;;;5071466;28;20152;-84
2022/05/17 05:11:11;;;;;;;22.02;11.02;;;538.40;2406.40;;;;;;5071861;28;20032;-81
2022/05/17 05:13:36;;;;;;;14.00;8.80;;;538.40;2406.40;;;;;;5071496;28;20037;-80
2022/05/17 05:16:07;;;;;;;16.67;10.18;;;538.50;2380.80;;;;;;5071453;28;20036;-81
2022/05/17 05:18:33;;;;;;;15.02;10.13;;;563.20;2355.20;;;;;;5072838;28;20025;-81
2022/05/17 05:21:10;;;;;;;24.48;10.13;;;538.50;2406.40;;;;;;5072431;28;20477;-78
2022/05/17 05:23:37;;;;;;;18.88;9.60;;;538.50;2406.40;;;;;;5071886;28;20025;-84
2022/05/17 05:26:03;;;;;;;33.40;11.27;;;538.50;2406.40;;;;;;5071703;28;20027;-82
2022/05/17 05:28:29;;;;;;;22.20;10.48;;;563.20;2432.00;;;;;;5072076;28;20025;-84
2022/05/17 05:30:55;;;;;;;16.50;10.27;;;563.30;2432.00;;;;;;5071861;28;20074;-83
2022/05/17 05:33:22;;;;;;;21.70;9.98;;;563.30;2432.00;;;;;;5071359;28;20507;-81
2022/05/17 05:35:48;;;;;;;19.88;9.35;;;563.40;2432.00;;;;;;5072403;28;20040;-82
2022/05/17 05:38:14;;;;;;;14.80;9.13;;;563.40;2432.00;;;;;;5071758;28;20025;-82
2022/05/17 05:40:41;;;;;;;21.90;9.75;;;563.50;2432.00;;;;;;5071865;28;20028;-85
2022/05/17 05:43:07;;;;;;;19.50;9.40;;;563.50;2432.00;;;;;;5071296;28;20119;-82
2022/05/17 05:45:34;;;;;;;20.13;9.55;;;563.50;2432.00;;;;;;5073019;28;20020;-81
2022/05/17 05:48:00;;;;;;;16.08;7.72;;;563.50;2406.40;;;;;;5071595;28;20024;-86
2022/05/17 05:50:26;;;;;;;16.30;9.35;;;563.60;2355.20;;;;;;5075945;28;20020;-83
2022/05/17 05:52:59;;;;;;;21.00;9.63;;;563.80;2329.60;;;;;;5075827;28;20461;-82
2022/05/17 05:55:25;;;;;;;15.02;8.20;;;564.00;2329.60;;;;;;5075092;28;20139;-82
2022/05/17 05:57:50;;;;;;;19.35;8.93;;;564.10;2304.00;;;;;;5076930;28;20448;-84
2022/05/17 06:00:18;;;;;;;14.35;8.90;;;588.80;2278.40;;;;;;5075469;28;20362;-82
2022/05/17 06:02:44;;;;;;;14.00;9.13;;;588.90;2304.00;;;;;;5076821;28;20035;-84
2022/05/17 06:05:10;;;;;;;22.50;9.30;;;589.00;2278.40;;;;;;5075383;28;20033;-82
2022/05/17 06:07:36;;;;;;;15.40;7.35;;;589.10;2278.40;;;;;;5075436;28;20033;-84
2022/05/17 06:10:06;;;;;;;15.73;7.43;;;589.20;2124.80;;;;;;5075404;28;20031;-84
2022/05/17 06:12:32;;;;;;;15.93;8.40;;;589.40;2124.80;;;;;;5076762;28;20044;-83
2022/05/17 06:14:58;;;;;;;17.15;8.80;;;589.50;2073.60;;;;;;5075153;28;20037;-84
2022/05/17 06:17:27;;;;;;;21.08;7.47;;;589.60;2048.00;;;;;;5075789;28;20028;-86
2022/05/17 06:19:55;;;;;;;16.55;7.38;;;589.70;2073.60;;;;;;5075655;28;20553;-85
2022/05/17 06:22:20;;;;;;;13.75;8.20;;;614.40;1996.80;;;;;;5075279;28;20021;-84
2022/05/17 06:24:46;;;;;;;14.95;6.35;;;614.40;2073.60;;;;;;5075501;28;20131;-84
2022/05/17 06:27:12;;;;;;;19.98;7.65;;;614.50;1971.20;;;;;;5075178;28;20021;-83
2022/05/17 06:29:38;;;;;;;17.08;6.82;;;614.60;1971.20;;;;;;5075320;28;20534;-84
2022/05/17 06:32:08;;;;;;;12.75;6.82;;;614.60;1971.20;;;;;;5074887;28;20078;-83
2022/05/17 06:34:33;;;;;;;8.82;6.20;;;614.70;1971.20;;;;;;5075038;28;20056;-84
2022/05/17 06:36:59;;;;;;;15.00;6.60;;;614.80;1996.80;;;;;;5075030;28;20491;-87
2022/05/17 06:39:25;;;;;;;11.52;7.40;;;614.80;2048.00;;;;;;5075093;28;20030;-83
2022/05/17 06:41:51;;;;;;;17.92;6.70;;;614.90;2022.40;;;;;;5074819;28;20024;-84
2022/05/17 06:44:16;;;;;;;16.40;6.95;;;615.00;2022.40;;;;;;5074943;28;20021;-83
2022/05/17 06:46:42;;;;;;;11.57;7.07;;;615.00;2022.40;;;;;;5074613;28;20087;-85
2022/05/17 06:49:09;;;;;;;16.27;7.00;;;615.00;2022.40;;;;;;5074481;28;20023;-85
2022/05/17 06:51:35;;;;;;;9.85;6.18;;;615.10;2048.00;;;;;;5074936;28;20040;-85
2022/05/17 06:54:01;;;;;;;12.65;6.63;;;615.10;2048.00;;;;;;5073933;28;20098;-80
2022/05/17 06:56:26;;;;;;;9.32;6.22;;;615.10;2022.40;;;;;;5073809;28;20480;-80
2022/05/17 06:58:52;;;;;;;16.27;6.10;;;615.20;2099.20;;;;;;5073605;28;20028;-79
2022/05/17 07:01:18;;;;;;;7.78;5.13;;;615.30;1996.80;;;;;;5072879;28;20088;-86
2022/05/17 07:03:44;;;;;;;12.00;5.40;;;615.30;1894.40;;;;;;5074150;28;20039;-83
2022/05/17 07:06:10;;;;;;;11.73;5.45;;;640.00;1868.80;;;;;;5074392;28;20119;-86
2022/05/17 07:08:36;;;;;;;18.83;6.32;;;640.20;1894.40;;;;;;5075047;28;20035;-83
2022/05/17 07:13:46;;;;;;;14.23;5.70;;;640.20;1817.60;;;;;;5075444;28;20067;-85
2022/05/17 07:16:11;;;;;;;13.10;6.53;;;640.30;1843.20;;;;;;5073915;28;20024;-84
2022/05/17 07:18:37;;;;;;;12.57;6.55;;;640.50;1817.60;;;;;;5073547;28;20059;-82
2022/05/17 07:21:03;;;;;;;14.13;7.32;;;640.60;1843.20;;;;;;5074055;28;20032;-86
2022/05/17 07:23:30;;;;;;;14.63;7.68;;;640.60;1817.60;;;;;;5074384;28;20031;-84
2022/05/17 07:25:56;;;;;;;12.02;6.40;;;640.70;1817.60;;;;;;5073879;28;20067;-84
2022/05/17 07:28:23;;;;;;;10.75;6.35;;;640.70;1843.20;;;;;;5074855;28;20060;-81
2022/05/17 07:30:50;;;;;;;14.57;6.40;;;640.90;1843.20;;;;;;5077298;28;20024;-80
2022/05/17 07:33:16;;;;;;;13.75;6.70;;;665.60;1843.20;;;;;;5092123;28;20017;-80
2022/05/17 07:35:43;;;;;;;12.18;6.57;;;665.80;1817.60;;;;;;5090853;28;20050;-86
2022/05/17 07:38:08;;;;;;;11.13;6.47;;;665.90;1843.20;;;;;;5073545;28;20028;-82
2022/05/17 07:40:35;;;;;;;9.30;6.20;;;665.90;1843.20;;;;;;5075667;28;20082;-80
2022/05/17 07:43:01;;;;;;;10.02;6.80;;;666.30;1868.80;;;;;;5074493;28;20353;-84
2022/05/17 07:45:27;;;;;;;17.55;7.30;;;666.10;1817.60;;;;;;5076379;28;20042;-85
2022/05/17 07:47:53;;;;;;;16.88;7.18;;;666.20;1792.00;;;;;;5075815;28;20082;-90
2022/05/17 07:50:19;;;;;;;12.40;6.50;;;666.20;1792.00;;;;;;5074964;28;20468;-83
2022/05/17 07:52:44;;;;;;;12.07;6.88;;;666.30;1792.00;;;;;;5073640;28;20098;-82
2022/05/17 07:55:11;;;;;;;12.75;6.57;;;666.30;1740.80;;;;;;5073245;28;20048;-84
2022/05/17 07:57:38;;;;;;;12.73;6.55;;;666.30;1792.00;;;;;;5073785;28;20035;-83
2022/05/17 08:00:06;;;;;;;18.45;6.90;;;691.20;1792.00;;;;;;5073536;28;20025;-84
2022/05/17 08:02:35;;;;;;;10.50;6.85;;;666.30;1792.00;;;;;;5073256;28;20503;-84
2022/05/17 08:05:02;;;;;;;18.05;7.40;;;666.30;1766.40;;;;;;5073306;28;20024;-84
2022/05/17 08:07:27;;;;;;;11.82;5.97;;;666.20;1817.60;;;;;;5073366;28;20028;-84
2022/05/17 08:09:53;;;;;;;12.15;6.28;;;666.20;1792.00;;;;;;5073097;28;20025;-83
2022/05/17 08:12:19;;;;;;;10.75;6.47;;;666.20;1843.20;;;;;;5072955;28;20107;-84
2022/05/17 08:14:47;;;;;;;20.85;7.53;;;666.20;1817.60;;;;;;5074182;28;20020;-84
2022/05/17 08:17:13;;;;;;;18.23;7.43;;;666.20;1740.80;;;;;;5073089;28;20024;-84
2022/05/17 08:19:39;;;;;;;8.50;5.93;;;666.00;1792.00;;;;;;5072969;28;20464;-84
2022/05/17 08:22:13;;;;;;;11.60;6.55;;;666.20;1740.80;;;;;;5072949;28;20052;-80
2022/05/17 08:27:35;;;;;;;15.60;7.85;;;666.30;1766.40;;;;;;5074101;28;20039;-83
2022/05/17 08:30:03;;;;;;;12.38;7.18;;;666.30;1792.00;;;;;;5072967;28;20032;-82
2022/05/17 08:35:14;;;;;;;13.45;7.55;;;666.20;1792.00;;;;;;5074114;28;20062;-85
2022/05/17 08:37:40;;;;;;;16.75;6.97;;;666.30;1766.40;;;;;;5073062;28;20032;-82
2022/05/17 08:40:06;;;;;;;11.43;7.05;;;666.40;1792.00;;;;;;5072323;28;20039;-83
2022/05/17 08:42:45;;;;;;;11.93;7.03;;;666.50;1766.40;;;;;;5072235;28;20027;-86
2022/05/17 08:45:17;;;;;;;10.13;5.82;;;691.20;1715.20;;;;;;5072492;28;20037;-87
2022/05/17 08:47:52;;;;;;;16.08;6.57;;;691.40;1689.60;;;;;;5072541;28;20020;-84
2022/05/17 08:50:25;;;;;;;15.82;6.70;;;691.50;1715.20;;;;;;5072572;28;20028;-83
2022/05/17 08:52:54;;;;;;;13.15;6.93;;;691.60;1740.80;;;;;;5072419;28;20068;-81
2022/05/17 08:55:24;;;;;;;12.30;6.60;;;691.60;1689.60;;;;;;5073231;28;20040;-88
2022/05/17 08:57:54;;;;;;;15.48;7.55;;;691.60;1612.80;;;;;;5072348;28;20032;-84
2022/05/17 09:00:24;;;;;;;15.27;7.88;;;691.50;1638.40;;;;;;5072243;28;20020;-84
2022/05/17 09:02:56;;;;;;;28.92;17.58;;;691.50;1587.20;;;;;;5073494;28;20017;-86
2022/05/17 09:05:38;;;;;;;25.48;11.80;;;691.60;1638.40;;;;;;5073132;28;20086;-87
2022/05/17 09:08:04;;;;;;;17.98;8.10;;;691.60;1638.40;;;;;;5072259;28;20025;-86
2022/05/17 09:10:40;;;;;;;12.90;7.25;;;691.60;1664.00;;;;;;5071991;28;20040;-83
2022/05/17 09:13:24;;;;;;;11.85;6.88;;;691.60;1689.60;;;;;;5073335;28;20036;-88
2022/05/17 09:15:53;;;;;;;19.27;7.10;;;691.60;1689.60;;;;;;5073079;28;20016;-80
2022/05/17 09:18:21;;;;;;;13.75;5.43;;;691.60;1612.80;;;;;;5071914;28;20021;-86
2022/05/17 09:20:47;;;;;;;10.90;6.05;;;691.70;1664.00;;;;;;5071660;28;20509;-84
2022/05/17 09:23:13;;;;;;;16.35;6.38;;;691.70;1638.40;;;;;;5071238;28;20040;-86
2022/05/17 09:25:50;;;;;;;12.77;6.03;;;691.70;1638.40;;;;;;5071703;28;20146;-81
2022/05/17 09:28:22;;;;;;;11.95;6.15;;;691.80;1689.60;;;;;;5072859;28;20035;-88
2022/05/17 09:31:05;;;;;;;11.05;6.57;;;691.70;1715.20;;;;;;5073026;28;20048;-88
2022/05/17 09:33:31;;;;;;;40.10;8.65;;;691.80;1715.20;;;;;;5071270;28;20032;-88
2022/05/17 09:36:00;;;;;;;18.25;6.50;;;692.10;1689.60;;;;;;5071594;28;20534;-86
2022/05/17 09:38:30;;;;;;;15.18;5.82;;;716.90;1664.00;;;;;;5071941;28;20032;-83
2022/05/17 09:40:57;;;;;;;10.23;5.78;;;717.10;1664.00;;;;;;5072921;28;20013;-87
2022/05/17 09:43:46;;;;;;;10.23;5.72;;;717.40;1587.20;;;;;;5072868;28;20079;-87
2022/05/17 09:46:14;;;;;;;9.85;6.07;;;717.40;1561.60;;;;;;5071719;28;20039;-83
2022/05/17 09:54:43;;;;;;;12.80;5.65;;;717.30;1561.60;;;;;;5072456;28;20424;-84
2022/05/17 09:57:18;;;;;;;12.63;6.00;;;717.20;1587.20;;;;;;5071591;28;20020;-86
2022/05/17 09:59:46;;;;;;;11.85;6.45;;;717.50;1612.80;;;;;;5071439;28;20028;-84
2022/05/17 10:02:29;;;;;;;13.38;6.07;;;742.40;1612.80;;;;;;5071728;28;20035;-85
2022/05/17 10:05:18;;;;;;;9.25;4.78;;;742.70;1612.80;;;;;;5071419;28;20503;-86
2022/05/17 10:07:58;;;;;;;11.20;4.80;;;742.90;1612.80;;;;;;5071725;28;20078;-89
2022/05/17 10:10:24;;;;;;;12.05;5.50;;;743.20;1638.40;;;;;;5071651;28;20403;-90
2022/05/17 10:12:51;;;;;;;12.10;4.95;;;743.10;1587.20;;;;;;5072871;28;20029;-92
2022/05/17 10:15:19;;;;;;;8.45;5.28;;;742.90;1612.80;;;;;;5072112;28;20028;-90
2022/05/17 10:18:00;;;;;;;10.13;4.57;;;743.10;1664.00;;;;;;5071456;28;20036;-88
2022/05/17 10:20:34;;;;;;;10.25;5.25;;;742.80;1664.00;;;;;;5071419;28;20050;-90
2022/05/17 10:23:00;;;;;;;10.45;4.90;;;742.50;1689.60;;;;;;5071942;28;20028;-88
2022/05/17 10:25:31;;;;;;;8.90;5.38;;;742.40;1715.20;;;;;;5072397;28;20029;-88
2022/05/17 10:28:13;;;;;;;9.50;4.78;;;742.40;1715.20;;;;;;5071785;28;20021;-83
2022/05/17 10:30:44;;;;;;;9.63;6.38;;;717.70;1689.60;;;;;;5072308;28;20545;-85
2022/05/17 10:33:28;;;;;;;8.15;5.20;;;742.50;1689.60;;;;;;5071414;28;20587;-87
2022/05/17 10:36:12;;;;;;;9.52;4.45;;;742.60;1766.40;;;;;;5073069;28;20025;-87
2022/05/17 10:38:50;;;;;;;6.35;4.55;;;742.70;1689.60;;;;;;5076530;28;20124;-85
2022/05/17 10:41:16;;;;;;;9.95;4.88;;;742.50;1638.40;;;;;;5076136;28;20035;-89
2022/05/17 10:43:45;;;;;;;7.75;4.70;;;742.40;1638.40;;;;;;5076368;28;20404;-89
2022/05/17 10:46:26;;;;;;;19.42;5.78;;;717.70;1664.00;;;;;;5079196;28;20029;-90
2022/05/17 10:48:58;;;;;;;12.02;5.10;;;742.40;1638.40;;;;;;5077363;28;20032;-90
2022/05/17 10:51:37;;;;;;;18.10;4.75;;;742.50;1638.40;;;;;;5076325;28;20021;-89
2022/05/17 10:54:33;;;;;;;6.00;3.22;;;742.80;1587.20;;;;;;5076020;28;20058;-89
2022/05/17 10:57:53;;;;;;;5.70;2.92;;;742.90;1459.20;;;;;;5079060;28;20052;-85
2022/05/17 11:00:25;;;;;;;8.00;2.55;;;743.00;1459.20;;;;;;5003423;28;20022;-88
2022/05/17 11:02:56;;;;;;;7.28;2.85;;;743.00;1382.40;;;;;;5016340;28;20045;-87
2022/05/17 11:05:45;;;;;;;6.45;2.85;;;743.20;1382.40;;;;;;5020057;28;20037;-86
2022/05/17 11:08:32;;;;;;;4.88;3.35;;;768.20;1408.00;;;;;;5004824;28;20034;-84
2022/05/17 11:11:43;;;;;;;8.77;3.13;;;768.20;1382.40;;;;;;5014276;28;20030;-90
2022/05/17 11:14:24;;;;;;;7.85;3.70;;;743.10;1459.20;;;;;;5009738;28;20041;-89
2022/05/17 11:17:17;;;;;;;5.97;3.33;;;743.00;1433.60;;;;;;4997424;28;20022;-87
2022/05/17 11:19:52;;;;;;;5.25;3.05;;;742.70;1356.80;;;;;;4998544;28;20026;-87
2022/05/17 11:22:31;;;;;;;;;;;742.90;1331.20;;;;;;4997889;28;20117;-89
2022/05/17 11:25:11;;;;;;;7.95;3.03;;;743.10;1331.20;;;;;;5013680;28;19914;-88
2022/05/17 11:28:04;;;;;;;7.68;3.35;;;768.00;1305.60;;;;;;4997420;28;20045;-89
2022/05/17 11:30:48;;;;;;;6.43;2.85;;;743.20;1280.00;;;;;;4997563;28;20030;-86
2022/05/17 11:33:29;;;;;;;7.05;3.40;;;743.10;1280.00;;;;;;5017173;28;20060;-89
2022/05/17 11:36:05;;;;;;;7.32;3.47;;;743.30;1331.20;;;;;;5073633;28;20473;-87
2022/05/17 11:38:31;;;;;;;6.55;3.60;;;743.30;1305.60;;;;;;5075180;28;20108;-88
2022/05/17 11:40:59;;;;;;;6.15;3.45;;;743.30;1280.00;;;;;;5074977;28;20051;-89
2022/05/17 11:43:47;;;;;;;10.02;3.58;;;743.00;1305.60;;;;;;5073853;28;20035;-90
2022/05/17 11:46:25;;;;;;;7.03;3.10;;;742.90;1331.20;;;;;;5073786;28;20020;-86
2022/05/17 11:49:18;;;;;;;6.22;3.45;;;742.50;1331.20;;;;;;5073227;28;20081;-89
2022/05/17 11:51:59;;;;;;;4.55;2.83;;;742.50;1331.20;;;;;;5073619;28;20017;-88
2022/05/17 11:54:59;;;;;;;4.22;2.47;;;717.70;1331.20;;;;;;5073442;28;20032;-89
2022/05/17 11:57:24;;;;;;;4.68;2.30;;;717.50;1356.80;;;;;;4996908;28;20572;-87
2022/05/17 12:00:04;;;;;;;3.90;2.53;;;742.50;1382.40;;;;;;4996397;28;20042;-87
2022/05/17 12:02:51;;;;;;;5.18;2.75;;;742.50;1356.80;;;;;;4996449;28;20149;-87
2022/05/17 12:05:38;;;;;;;18.63;3.28;;;742.90;1331.20;;;;;;4996970;28;20032;-89
2022/05/17 12:08:32;;;;;;;6.10;2.33;;;743.10;1331.20;;;;;;4996927;28;20034;-88
2022/05/17 12:11:12;;;;;;;5.28;2.33;;;743.10;1331.20;;;;;;4996887;28;20025;-87
2022/05/17 12:14:01;;;;;;;7.22;2.90;;;743.00;1331.20;;;;;;4997019;28;20136;-87
2022/05/17 12:16:31;;;;;;;5.60;3.05;;;743.10;1382.40;;;;;;4935542;29;20448;-86
2022/05/17 12:19:10;;;;;;;8.32;3.67;;;743.10;1382.40;;;;;;4919402;29;20115;-89
2022/05/17 12:21:51;;;;;;;8.98;3.35;;;768.20;1382.40;;;;;;4919156;29;20032;-88
2022/05/17 12:24:35;;;;;;;7.47;3.33;;;768.20;1408.00;;;;;;4919468;29;20067;-84
2022/05/17 12:27:20;;;;;;;4.47;2.83;;;768.10;1408.00;;;;;;4919010;29;20481;-89
2022/05/17 12:32:53;;;;;;;9.82;3.88;;;768.60;1408.00;;;;;;4961663;28;20069;-90
2022/05/17 12:35:26;;;;;;;7.35;3.28;;;768.20;1408.00;;;;;;4992537;28;20042;-83
2022/05/17 12:37:52;;;;;;;5.25;3.88;;;768.20;1433.60;;;;;;4975819;28;20019;-83
2022/05/17 12:43:31;;;;;;;8.35;3.53;;;768.60;1484.80;;;;;;4992389;28;20422;-83
2022/05/17 12:46:16;;;;;;;7.35;3.35;;;768.60;1459.20;;;;;;4992456;28;20026;-89
2022/05/17 12:48:42;;;;;;;8.32;3.35;;;768.40;1408.00;;;;;;4976085;28;20026;-87